Antiville, Indiana
Current Conditions -  °F | °C
As of 8:53 AM on Sunday 25 Jan 2015 (Local Time) from KMIE Reporting Station
Haze Haze  
Wind Chill: 34°   Ceiling: 5000
Heat Index: 34°   Visibility: 5mi
Dew Point: 31°   Wind: 3mph
Humidity: 89%   Direction: 120°ESE
Pressure: 29.7"   Gusts: NA
Location:  40.4312°N, 85.0058°W
Report Text: KMIE 251353Z 12003KT 5SM UP BR OVC050 01/M01 A2970 RMK AO2 UPB47 SLP062 P0000 T00111006
Loading
Personal Weather Stations






























Interactive Weather Map New forecast layout! Learn more

10-Day Weather Forecast

Advertisements
Track Severe Weather on mobile